No particular awareness of the weather is required.    There are no Weather-warnings


Meteo18 Weather Cam more information Meteo18 Weather Cam


Thunder radar more information blitzortung!


Rain radar more information rain snow radar


Visit our other weather sites:

Template documentation
and downloads

And another site



Weather Underground History page Text

Daily Summary for May 3, 2017 Units:  English    Metric   Both
« Previous Day
Next Day »
Daily Weekly Monthly Yearly Custom
  High: Low: Average:
Temperature: 56.7 °F 41.9 °F 48.7 °F
Dew Point: 49.1 °F 40.1 °F 45 °F
Humidity: 96 % 68 % 87 %
Wind Speed: 6 mph 0 mph 0.8 mph
Wind Gust: 10 mph - -
Wind:- - SSE
Pressure: 30.1 in 30 in -
Precipitation: 0.11 in    
Historical Graphs
 
 
Tabular Data for May 3, 2017
Time Temperature Dew Point Pressure Wind Wind Speed Wind Gust Humidity Rainfall Rate (Hourly)
00:02 49.3 °F 44.6 °F 30.1 in Calm   3 mph 84 % 0 in
00:07 49.5 °F 44.8 °F 30.1 in Calm   2 mph 84 % 0 in
00:12 49.3 °F 44.6 °F 30.1 in Calm   3 mph 84 % 0 in
00:17 48.9 °F 44.6 °F 30.1 in Calm   3 mph 85 % 0 in
00:22 48.6 °F 44.2 °F 30.1 in Calm   1 mph 85 % 0 in
00:32 48 °F 44.4 °F 30.1 in Calm   1 mph 87 % 0 in
00:42 47.7 °F 44.2 °F 30.1 in West 1 mph 2 mph 88 % 0 in
00:47 47.7 °F 44.2 °F 30.1 in West 1 mph 2 mph 88 % 0 in
00:52 47.7 °F 44.1 °F 30.1 in Calm   2 mph 87 % 0 in
00:57 47.5 °F 43.9 °F 30.1 in Calm   2 mph 87 % 0 in
01:02 47.3 °F 43.7 °F 30.1 in Calm   2 mph 87 % 0 in
01:07 47.1 °F 43.7 °F 30.1 in Calm   1 mph 88 % 0 in
01:12 46.8 °F 43.3 °F 30.1 in Calm   1 mph 88 % 0 in
01:17 46.6 °F 43.5 °F 30.1 in Calm   1 mph 89 % 0 in
01:22 46.4 °F 43.3 °F 30.1 in Calm   2 mph 89 % 0 in
01:27 46 °F 43 °F 30.1 in Calm   2 mph 89 % 0 in
01:32 46 °F 43.3 °F 30.1 in Calm   2 mph 90 % 0 in
01:37 46 °F 43.3 °F 30.1 in Calm   1 mph 90 % 0 in
01:42 46 °F 43.3 °F 30.1 in Calm   1 mph 90 % 0 in
01:47 46.2 °F 43.5 °F 30.1 in Calm   1 mph 90 % 0 in
01:52 46.4 °F 43.7 °F 30.1 in Calm   1 mph 90 % 0 in
01:57 46.4 °F 43.7 °F 30.1 in Calm   1 mph 90 % 0 in
02:02 46.4 °F 43.3 °F 30.1 in Calm   1 mph 89 % 0 in
02:07 46.2 °F 43.2 °F 30.1 in Calm   1 mph 89 % 0 in
02:12 46.2 °F 43.5 °F 30.1 in Calm   1 mph 90 % 0 in
02:17 46 °F 43 °F 30.1 in Calm   1 mph 89 % 0 in
02:22 46 °F 43.3 °F 30.1 in Calm     90 % 0 in
02:27 45.9 °F 42.8 °F 30.1 in Calm     89 % 0 in
02:32 45.3 °F 42.6 °F 30.1 in Calm   1 mph 90 % 0 in
02:37 45 °F 42.3 °F 30.1 in Calm   1 mph 90 % 0 in
02:42 44.8 °F 42.3 °F 30.1 in Calm   1 mph 91 % 0 in
02:47 44.8 °F 42.3 °F 30.1 in Calm   1 mph 91 % 0 in
02:52 44.4 °F 41.9 °F 30.1 in Calm   1 mph 91 % 0 in
02:57 44.2 °F 42.1 °F 30.1 in Calm   1 mph 92 % 0 in
03:02 44.2 °F 42.1 °F 30.1 in Calm   1 mph 92 % 0 in
03:07 43.9 °F 41.7 °F 30.1 in Calm   1 mph 92 % 0 in
03:12 43.5 °F 41.4 °F 30.1 in Calm   1 mph 92 % 0 in
03:22 43.9 °F 42.3 °F 30.1 in Calm   1 mph 94 % 0 in
03:27 44.2 °F 42.6 °F 30.1 in Calm   1 mph 94 % 0 in
03:32 44.4 °F 42.4 °F 30.1 in Calm   1 mph 93 % 0 in
03:37 44.4 °F 42.4 °F 30.1 in Calm   1 mph 93 % 0 in
03:42 44.6 °F 42.6 °F 30.1 in Calm   1 mph 93 % 0 in
03:47 44.4 °F 42.3 °F 30.1 in Calm   1 mph 92 % 0 in
03:52 44.2 °F 42.1 °F 30.1 in Calm     92 % 0 in
03:57 44.4 °F 42.4 °F 30.1 in Calm     93 % 0 in
04:02 44.2 °F 42.1 °F 30.1 in Calm     92 % 0 in
04:07 44.1 °F 41.9 °F 30.1 in Calm     92 % 0 in
04:12 44.2 °F 42.3 °F 30.1 in Calm     93 % 0 in
04:17 43.9 °F 41.7 °F 30.1 in Calm     92 % 0 in
04:22 43.5 °F 41.4 °F 30.1 in Calm     92 % 0 in
04:27 43.3 °F 41.5 °F 30.1 in Calm   1 mph 93 % 0 in
04:32 43.5 °F 41.7 °F 30.1 in Calm   1 mph 93 % 0 in
04:37 43.9 °F 42.3 °F 30.1 in Calm   1 mph 94 % 0 in
04:42 44.1 °F 42.4 °F 30.1 in Calm     94 % 0 in
04:47 43.9 °F 41.9 °F 30.1 in Calm     93 % 0 in
04:52 43.7 °F 41.7 °F 30.1 in Calm     93 % 0 in
04:57 43.9 °F 42.3 °F 30.1 in Calm     94 % 0 in
05:02 43.5 °F 41.7 °F 30.1 in Calm     93 % 0 in
05:12 44.4 °F 42.8 °F 30.1 in Calm   1 mph 94 % 0 in
05:17 44.8 °F 43.2 °F 30.1 in NNW 1 mph 2 mph 94 % 0 in
05:22 44.8 °F 42.8 °F 30.1 in Calm   2 mph 93 % 0 in
05:27 45 °F 43 °F 30.1 in Calm   2 mph 93 % 0 in
05:32 45 °F 43 °F 30.1 in Calm   1 mph 93 % 0 in
05:37 44.8 °F 42.8 °F 30.1 in Calm   1 mph 93 % 0 in
05:42 44.6 °F 42.4 °F 30.1 in Calm   1 mph 92 % 0 in
05:47 44.2 °F 42.1 °F 30.1 in Calm     92 % 0 in
05:52 44.1 °F 41.9 °F 30.1 in Calm     92 % 0 in
06:02 42.8 °F 40.6 °F 30.1 in Calm     92 % 0 in
06:12 42.3 °F 40.1 °F 30.1 in Calm   1 mph 92 % 0 in
06:17 42.1 °F 40.3 °F 30.1 in Calm   1 mph 93 % 0 in
06:22 42.1 °F 40.3 °F 30.1 in Calm     93 % 0 in
06:32 42.1 °F 40.5 °F 30.1 in Calm     94 % 0 in
06:42 41.9 °F 40.3 °F 30.1 in Calm     94 % 0 in
06:47 42.1 °F 40.5 °F 30.1 in Calm     94 % 0 in
06:52 42.3 °F 40.6 °F 30.1 in Calm     94 % 0 in
07:02 42.3 °F 40.6 °F 30.1 in Calm     94 % 0 in
07:12 42.3 °F 40.6 °F 30.1 in Calm   1 mph 94 % 0 in
07:17 42.4 °F 40.8 °F 30.1 in Calm   1 mph 94 % 0 in
07:22 42.4 °F 41.2 °F 30.1 in Calm     95 % 0 in
07:27 42.4 °F 41.2 °F 30.1 in Calm     95 % 0 in
07:32 42.4 °F 41.2 °F 30.1 in Calm     95 % 0 in
07:37 42.4 °F 41.2 °F 30.1 in Calm     95 % 0 in
07:42 42.6 °F 41.4 °F 30.1 in Calm     95 % 0 in
07:47 42.6 °F 41.4 °F 30.1 in Calm     95 % 0 in
07:52 43 °F 41.7 °F 30.1 in Calm     95 % 0 in
07:57 43.2 °F 41.9 °F 30.1 in Calm     95 % 0 in
08:02 43.5 °F 42.3 °F 30.1 in Calm     95 % 0 in
08:12 44.4 °F 43.2 °F 30.1 in Calm     95 % 0 in
08:17 45.1 °F 43.9 °F 30.1 in Calm   1 mph 95 % 0 in
08:22 45.9 °F 44.8 °F 30.1 in Calm   1 mph 96 % 0 in
08:27 46.2 °F 44.8 °F 30.1 in Calm   1 mph 95 % 0 in
08:32 46.9 °F 45.5 °F 30.1 in Calm     95 % 0 in
08:42 48 °F 46.4 °F 30.1 in Calm   1 mph 94 % 0 in
08:47 48 °F 45.9 °F 30.1 in NE 3 mph 4 mph 92 % 0 in
08:57 47.7 °F 45.5 °F 30.1 in ENE 1 mph 4 mph 92 % 0 in
09:02 47.5 °F 45 °F 30.1 in ENE 1 mph 4 mph 91 % 0 in
09:12 47.8 °F 45.7 °F 30.1 in ENE 1 mph 4 mph 92 % 0 in
09:17 47.8 °F 45.7 °F 30.1 in Calm   3 mph 92 % 0 in
09:22 47.8 °F 45.7 °F 30.1 in Calm   3 mph 92 % 0 in
09:27 48 °F 45.9 °F 30.1 in Calm   2 mph 92 % 0 in
09:32 48.4 °F 46.2 °F 30.1 in Calm   2 mph 92 % 0 in
09:37 48.2 °F 45.7 °F 30.1 in Calm   2 mph 91 % 0 in
09:42 48.4 °F 45.9 °F 30.1 in Calm   1 mph 91 % 0 in
09:47 48.6 °F 46.4 °F 30.1 in SW 1 mph 1 mph 92 % 0 in
09:52 48.6 °F 46 °F 30.1 in SSW 1 mph 2 mph 91 % 0 in
09:57 48.6 °F 46 °F 30.1 in Calm   3 mph 91 % 0 in
10:02 48.7 °F 46.2 °F 30.1 in Calm   3 mph 91 % 0 in
10:07 48.9 °F 46.4 °F 30.1 in Calm   3 mph 91 % 0 in
10:12 49.5 °F 46.9 °F 30.1 in Calm   1 mph 91 % 0 in
10:17 49.5 °F 46.6 °F 30.1 in Calm     90 % 0 in
10:27 49.8 °F 46.8 °F 30.1 in SE 1 mph   89 % 0 in
10:32 49.8 °F 46.8 °F 30.1 in Calm   2 mph 89 % 0 in
10:37 49.8 °F 46.4 °F 30.1 in SSW 1 mph 2 mph 88 % 0 in
10:42 49.8 °F 46 °F 30.1 in SSW 1 mph 3 mph 87 % 0 in
10:47 50 °F 46.6 °F 30.1 in SE 1 mph 3 mph 88 % 0 in
10:52 50.2 °F 46.8 °F 30.1 in Calm   3 mph 88 % 0 in
10:57 50.4 °F 46.6 °F 30.1 in SSE 2 mph 3 mph 87 % 0 in
11:02 50.4 °F 46.4 °F 30.1 in South 2 mph 3 mph 86 % 0 in
11:12 50.4 °F 46.4 °F 30.1 in SSW 2 mph 5 mph 86 % 0 in
11:17 50.4 °F 46 °F 30.1 in SW 2 mph 5 mph 85 % 0 in
11:22 50.5 °F 45.9 °F 30.1 in Calm   5 mph 84 % 0 in
11:27 50.7 °F 45.7 °F 30.1 in Calm   5 mph 83 % 0 in
11:32 51.1 °F 46 °F 30.1 in SSW 1 mph 5 mph 83 % 0 in
11:37 51.4 °F 46.8 °F 30.1 in Calm   4 mph 84 % 0 in
11:42 52.2 °F 47.5 °F 30.1 in Calm   1 mph 84 % 0 in
11:47 52.2 °F 47.1 °F 30.1 in Calm   1 mph 83 % 0 in
11:52 52 °F 47.3 °F 30.1 in NE 2 mph 2 mph 84 % 0 in
11:57 52.2 °F 47.5 °F 30.1 in East 1 mph 4 mph 84 % 0 in
12:02 52.2 °F 46.6 °F 30.1 in East 1 mph 4 mph 81 % 0 in
12:07 52.5 °F 46.9 °F 30.1 in ENE 2 mph 4 mph 81 % 0 in
12:12 52.9 °F 47.3 °F 30.1 in NE 1 mph 5 mph 81 % 0 in
12:17 53.1 °F 47.3 °F 30.1 in Calm   5 mph 81 % 0 in
12:22 53.2 °F 46.6 °F 30.1 in Calm   5 mph 78 % 0 in
12:27 53.8 °F 47.1 °F 30.1 in NNE 3 mph 5 mph 78 % 0 in
12:32 54 °F 47.3 °F 30.1 in Calm   5 mph 78 % 0 in
12:42 55.6 °F 47.1 °F 30.1 in NNW 2 mph 4 mph 73 % 0 in
12:47 55.2 °F 47.1 °F 30.1 in Calm   4 mph 74 % 0 in
12:52 55.6 °F 46.4 °F 30.1 in NNE 2 mph 4 mph 71 % 0 in
12:57 54.7 °F 46.9 °F 30.1 in NNW 6 mph 9 mph 75 % 0 in
13:02 53.2 °F 47.3 °F 30.1 in NNW 6 mph 9 mph 80 % 0 in
13:12 51.6 °F 46.9 °F 30.1 in Calm   9 mph 84 % 0.02 in
13:17 51.3 °F 46.9 °F 30.1 in NNE 2 mph 6 mph 85 % 0.02 in
13:22 50.5 °F 46.2 °F 30.1 in NNE 2 mph 5 mph 85 % 0.03 in
13:27 50.4 °F 45.7 °F 30.1 in NNE 4 mph 7 mph 84 % 0.04 in
13:32 50.2 °F 45.5 °F 30.1 in NE 4 mph 7 mph 84 % 0.04 in
13:37 50.2 °F 45.9 °F 30.1 in NNE 2 mph 7 mph 85 % 0.04 in
13:42 50.4 °F 46 °F 30.1 in NE 4 mph 6 mph 85 % 0.04 in
13:47 50.4 °F 46 °F 30.1 in NE 1 mph 6 mph 85 % 0.04 in
13:52 50.5 °F 46.2 °F 30.1 in NE 4 mph 6 mph 85 % 0.04 in
13:57 51.1 °F 47.1 °F 30.1 in Calm   5 mph 86 % 0.04 in
14:02 51.6 °F 47.5 °F 30.1 in Calm   5 mph 86 % 0.04 in
14:07 52 °F 47.7 °F 30.1 in NW 3 mph 5 mph 85 % 0.02 in
14:12 52.2 °F 47.5 °F 30.1 in Calm   8 mph 84 % 0.02 in
14:17 52.2 °F 47.1 °F 30.1 in Calm   8 mph 83 % 0.01 in
14:22 52 °F 46.4 °F 30.1 in Calm   8 mph 81 % 0.01 in
14:27 52 °F 46.4 °F 30.1 in ESE 2 mph 5 mph 81 % 0 in
14:32 51.8 °F 46.8 °F 30.1 in East 2 mph 3 mph 83 % 0 in
14:37 51.6 °F 46.6 °F 30.1 in Calm   4 mph 83 % 0 in
14:42 52.2 °F 47.5 °F 30.1 in ENE 1 mph 4 mph 84 % 0 in
14:47 51.8 °F 46.8 °F 30.1 in Calm   2 mph 83 % 0 in
14:52 52 °F 47.3 °F 30.1 in NE 2 mph 2 mph 84 % 0 in
14:57 52.2 °F 47.5 °F 30.1 in NNE 2 mph 3 mph 84 % 0 in
15:02 52.7 °F 48 °F 30.1 in NNE 5 mph 5 mph 84 % 0 in
15:07 53.1 °F 47.7 °F 30.1 in North 4 mph 9 mph 82 % 0 in
15:12 53.2 °F 47.5 °F 30.1 in North 4 mph 10 mph 81 % 0 in
15:17 53.8 °F 48.4 °F 30.1 in NNW 4 mph 10 mph 82 % 0 in
15:22 54.1 °F 49.1 °F 30.1 in NNW 3 mph 10 mph 83 % 0 in
15:27 54.1 °F 47.1 °F 30.1 in NE 3 mph 9 mph 77 % 0 in
15:32 54.7 °F 48 °F 30.1 in North 4 mph 8 mph 78 % 0 in
15:37 54.9 °F 47.5 °F 30.1 in North 4 mph 8 mph 76 % 0 in
15:42 54.9 °F 47.5 °F 30.1 in West 2 mph 7 mph 76 % 0 in
15:47 55.2 °F 47.1 °F 30.1 in NE 1 mph 7 mph 74 % 0 in
15:52 55.6 °F 48.2 °F 30.1 in Calm   5 mph 76 % 0 in
15:57 55.8 °F 46.9 °F 30.1 in NNW 1 mph 4 mph 72 % 0 in
16:02 55.8 °F 47.7 °F 30.1 in West 2 mph 4 mph 74 % 0 in
16:07 55.6 °F 46.8 °F 30.1 in North 4 mph 4 mph 72 % 0 in
16:12 55.6 °F 46.8 °F 30.1 in NW 1 mph 4 mph 72 % 0 in
16:17 55.8 °F 46.9 °F 30.1 in Calm   4 mph 72 % 0 in
16:22 55.6 °F 46 °F 30.1 in Calm   4 mph 70 % 0 in
16:27 55.8 °F 46.6 °F 30.1 in Calm   3 mph 71 % 0 in
16:32 56.3 °F 45.9 °F 30.1 in Calm   3 mph 68 % 0 in
16:37 56.3 °F 45.9 °F 30.1 in Calm   2 mph 68 % 0 in
16:42 56.7 °F 46.6 °F 30.1 in Calm   1 mph 69 % 0 in
16:47 56.3 °F 46.2 °F 30.1 in Calm   2 mph 69 % 0 in
16:52 56.5 °F 46.8 °F 30.1 in Calm   2 mph 70 % 0 in
16:57 56.7 °F 46.2 °F 30.1 in SW 1 mph 2 mph 68 % 0 in
17:02 56.3 °F 46.2 °F 30.1 in Calm   2 mph 69 % 0 in
17:12 56.1 °F 48 °F 30.1 in ESE 1 mph 2 mph 74 % 0 in
17:17 55.9 °F 48.6 °F 30.1 in ESE 1 mph 3 mph 76 % 0 in
17:22 55.6 °F 48.6 °F 30.1 in SSW 2 mph 4 mph 77 % 0 in
17:27 55.2 °F 48.6 °F 30.1 in SSE 1 mph 4 mph 78 % 0 in
17:32 55.2 °F 48.6 °F 30.1 in SSW 1 mph 4 mph 78 % 0 in
17:37 55 °F 48.4 °F 30.1 in SSW 1 mph 4 mph 78 % 0 in
17:42 55 °F 48.6 °F 30.1 in SE 2 mph 4 mph 79 % 0 in
17:47 55 °F 48 °F 30.1 in Calm   4 mph 77 % 0 in
17:52 54.9 °F 47.8 °F 30.1 in SE 2 mph 4 mph 77 % 0 in
17:57 54.9 °F 48.2 °F 30 in SSE 3 mph 4 mph 78 % 0 in
18:02 54.7 °F 47.3 °F 30 in SW 3 mph 7 mph 76 % 0 in
18:07 54.7 °F 48.4 °F 30 in SW 3 mph 7 mph 79 % 0 in
18:17 54.3 °F 45.5 °F 30 in SW 1 mph 7 mph 72 % 0 in
18:22 54.5 °F 46 °F 30 in SW 2 mph 7 mph 73 % 0 in
18:27 54.5 °F 45.7 °F 30 in SSW 3 mph 7 mph 72 % 0 in
18:37 54.3 °F 46.2 °F 30 in SW 3 mph 7 mph 74 % 0 in
18:42 54.3 °F 46.2 °F 30.1 in SW 3 mph 7 mph 74 % 0 in
18:47 54.1 °F 46.4 °F 30.1 in SW 1 mph 7 mph 75 % 0 in
18:52 54.1 °F 46.8 °F 30.1 in WSW 1 mph 5 mph 76 % 0 in
18:57 54 °F 46.6 °F 30.1 in WSW 2 mph 4 mph 76 % 0 in
19:02 53.2 °F 45.9 °F 30.1 in NE 3 mph 3 mph 76 % 0 in
19:07 52.2 °F 46.2 °F 30.1 in Calm   8 mph 80 % 0 in
19:12 51.6 °F 46 °F 30.1 in NNE 4 mph 8 mph 81 % 0 in
19:17 51.1 °F 45.5 °F 30.1 in North 3 mph 8 mph 81 % 0 in
19:22 50.5 °F 45.3 °F 30.1 in NNE 1 mph 8 mph 82 % 0 in
19:32 49.8 °F 45.1 °F 30.1 in North 4 mph 7 mph 84 % 0 in
19:37 49.5 °F 45.1 °F 30.1 in NNW 3 mph 7 mph 85 % 0 in
19:42 49.3 °F 45 °F 30.1 in NW 3 mph 7 mph 85 % 0 in
19:47 48.9 °F 45 °F 30.1 in NNW 3 mph 6 mph 86 % 0 in
19:57 48.6 °F 44.8 °F 30.1 in NNW 3 mph 8 mph 87 % 0 in
20:02 48.6 °F 45.1 °F 30.1 in NW 1 mph 8 mph 88 % 0 in
20:07 48.4 °F 45 °F 30.1 in NW 1 mph 7 mph 88 % 0 in
20:12 48.4 °F 45.3 °F 30.1 in NNW 1 mph 5 mph 89 % 0 in
20:17 48 °F 45 °F 30.1 in NNW 2 mph 5 mph 89 % 0.01 in
20:27 47.8 °F 45 °F 30.1 in Calm   5 mph 90 % 0.02 in
20:32 47.7 °F 45 °F 30.1 in NNE 1 mph 5 mph 90 % 0.02 in
20:42 47.5 °F 45 °F 30.1 in NNE 3 mph 5 mph 91 % 0.04 in
20:47 47.5 °F 45.3 °F 30.1 in NNE 2 mph 6 mph 92 % 0.05 in
20:52 47.5 °F 45.3 °F 30.1 in NNW 1 mph 6 mph 92 % 0.05 in
20:57 47.5 °F 45.3 °F 30.1 in Calm   6 mph 92 % 0.05 in
21:02 47.3 °F 45.1 °F 30.1 in Calm   5 mph 92 % 0.05 in
21:07 47.3 °F 45.3 °F 30.1 in Calm   3 mph 93 % 0.05 in
21:12 47.3 °F 45.3 °F 30.1 in NNW 1 mph 3 mph 93 % 0.04 in
21:22 47.1 °F 45.1 °F 30.1 in Calm   2 mph 93 % 0.03 in
21:27 47.3 °F 45.3 °F 30.1 in Calm   2 mph 93 % 0.03 in
21:32 47.1 °F 45.1 °F 30.1 in Calm   2 mph 93 % 0.03 in
21:37 47.1 °F 45.1 °F 30.1 in Calm   1 mph 93 % 0.02 in
21:42 47.1 °F 45.1 °F 30.1 in Calm   1 mph 93 % 0.02 in
21:47 47.1 °F 45.1 °F 30.1 in Calm   1 mph 93 % 0.01 in
21:52 46.9 °F 45.3 °F 30.1 in Calm   1 mph 94 % 0.01 in
21:57 46.9 °F 45.3 °F 30.1 in Calm   1 mph 94 % 0.02 in
22:02 46.9 °F 45.3 °F 30.1 in Calm   1 mph 94 % 0.02 in
22:12 46.9 °F 45.3 °F 30.1 in Calm     94 % 0.02 in
22:17 46.9 °F 45.3 °F 30.1 in Calm     94 % 0.02 in
22:22 46.9 °F 45.3 °F 30.1 in Calm     94 % 0.02 in
22:27 46.9 °F 45.3 °F 30.1 in Calm   1 mph 94 % 0.02 in
22:32 46.9 °F 45.3 °F 30.1 in Calm   1 mph 94 % 0.01 in
22:37 46.9 °F 45.3 °F 30.1 in NNE 1 mph 1 mph 94 % 0.02 in
22:42 46.9 °F 45.3 °F 30.1 in NE 1 mph 1 mph 94 % 0.02 in
22:52 46.8 °F 45.1 °F 30.1 in Calm   2 mph 94 % 0.02 in
22:57 46.8 °F 45.3 °F 30.1 in Calm   2 mph 95 % 0.01 in
23:02 46.8 °F 45.3 °F 30.1 in NNE 1 mph 2 mph 95 % 0.01 in
23:12 46.8 °F 45.3 °F 30.1 in NE 3 mph 5 mph 95 % 0.01 in
23:17 46.8 °F 45.3 °F 30.1 in NNE 2 mph 5 mph 95 % 0.01 in
23:22 46.8 °F 45.3 °F 30.1 in NE 2 mph 5 mph 95 % 0.01 in
23:27 46.8 °F 45.3 °F 30.1 in Calm   5 mph 95 % 0.01 in
23:32 46.8 °F 45.3 °F 30.1 in Calm   4 mph 95 % 0 in
23:37 46.6 °F 45.1 °F 30.1 in Calm   4 mph 95 % 0 in
23:42 46.6 °F 45.1 °F 30.1 in Calm   3 mph 95 % 0 in
23:47 46.6 °F 45.1 °F 30.1 in Calm   2 mph 95 % 0 in
23:52 46.6 °F 45.1 °F 30.1 in NNE 1 mph 2 mph 95 % 0 in
23:57 46.6 °F 45.1 °F 30.1 in Calm   3 mph 95 % 0 in
Meteo18
Compliments of Weather Underground - 4 mb

Script developed by  Jim McMurry - jmcmurry@mwt.net Adapted for the template by  Wim van der Kuil - Leuven-Template.eu

You find our weather info also at:

European Weather Network

Weather Underground

Equipment we use:

Weather-station
Davis Vue

Weather-program
Meteohub

Weather-server
Raspberry PI 2 B+

Provider
1 and 1

Davis Vue

Meteohub

Raspberry PI 2 B+

1 and 1